Time;durP1;ratioP1;P1;durP2;ratioP2;P2;SDS_P1;SDS_P2;PMS_P1;PMS_P2;Temp;Humidity;BMP_temperature;BMP_pressure;BME280_temperature;BME280_humidity;BME280_pressure;Samples;Min_cycle;Max_cycle;Signal;HPM_P1;HPM_P2
2021/10/03 00:01:02;;;;;;;11.50;8.38;;;;;;;13.04;94.48;100244.13;4995944;28;20087;-78
2021/10/03 00:03:28;;;;;;;12.30;8.73;;;;;;;13.03;94.54;100233.47;4994971;28;20026;-77
2021/10/03 00:05:55;;;;;;;12.63;7.50;;;;;;;13.02;94.60;100220.91;4996259;28;20030;-78
2021/10/03 00:08:21;;;;;;;12.63;8.40;;;;;;;12.99;94.61;100210.56;4995198;28;20026;-78
2021/10/03 00:10:46;;;;;;;15.32;8.32;;;;;;;12.98;94.63;100201.53;4995065;28;20105;-78
2021/10/03 00:13:12;;;;;;;12.13;7.60;;;;;;;12.97;94.54;100199.13;4994423;28;20070;-78
2021/10/03 00:15:38;;;;;;;11.43;8.02;;;;;;;12.98;94.69;100187.03;4979986;28;20029;-78
2021/10/03 00:18:04;;;;;;;12.93;8.10;;;;;;;13.01;94.72;100175.50;5011543;28;20096;-78
2021/10/03 00:20:29;;;;;;;12.90;8.00;;;;;;;13.03;94.61;100178.72;5013279;28;20057;-78
2021/10/03 00:22:55;;;;;;;15.10;7.90;;;;;;;13.04;94.38;100169.41;5012058;28;20117;-78
2021/10/03 00:25:20;;;;;;;9.90;8.43;;;;;;;13.04;94.42;100166.66;4994776;28;20025;-78
2021/10/03 00:27:47;;;;;;;12.32;7.65;;;;;;;13.05;94.50;100154.63;5012289;28;20045;-78
2021/10/03 00:30:13;;;;;;;14.70;7.75;;;;;;;13.05;94.40;100160.09;4995419;28;20027;-79
2021/10/03 00:32:39;;;;;;;10.25;8.32;;;;;;;13.05;94.51;100149.94;4993730;28;20519;-78
2021/10/03 00:35:05;;;;;;;12.90;8.60;;;;;;;13.05;94.18;100139.00;5012884;28;20034;-79
2021/10/03 00:37:30;;;;;;;12.30;8.43;;;;;;;13.06;94.28;100131.59;4981279;28;20408;-78
2021/10/03 00:39:55;;;;;;;12.00;7.88;;;;;;;13.06;94.35;100132.41;5011339;28;20026;-78
2021/10/03 00:42:21;;;;;;;11.13;7.97;;;;;;;13.08;94.34;100121.97;5010923;28;20033;-78
2021/10/03 00:44:46;;;;;;;16.23;8.48;;;;;;;13.09;94.08;100123.59;4967209;28;20508;-79
2021/10/03 00:47:13;;;;;;;10.48;8.30;;;;;;;13.11;93.95;100115.06;5007584;28;20036;-79
2021/10/03 00:49:38;;;;;;;12.68;7.95;;;;;;;13.11;93.99;100113.16;4978818;28;20485;-78
2021/10/03 00:52:05;;;;;;;12.23;8.75;;;;;;;13.12;94.09;100111.22;4994439;28;20029;-78
2021/10/03 00:54:31;;;;;;;12.18;7.25;;;;;;;13.14;93.71;100114.47;5010784;28;20022;-79
2021/10/03 00:56:56;;;;;;;12.02;8.85;;;;;;;13.14;93.91;100103.50;4993733;28;20032;-78
2021/10/03 00:59:22;;;;;;;13.65;8.98;;;;;;;13.15;93.62;100096.94;4977785;28;20030;-78
2021/10/03 01:01:47;;;;;;;13.38;8.80;;;;;;;13.16;93.70;100084.84;4994128;28;20044;-78
2021/10/03 01:04:13;;;;;;;11.35;8.32;;;;;;;13.16;93.55;100075.84;5013208;28;20029;-78
2021/10/03 01:06:39;;;;;;;12.70;9.45;;;;;;;13.16;93.51;100075.84;4992523;28;20033;-78
2021/10/03 01:09:05;;;;;;;12.43;9.95;;;;;;;13.18;93.27;100087.31;4986503;28;20053;-78
2021/10/03 01:11:30;;;;;;;12.05;9.10;;;;;;;13.19;93.28;100099.84;5012480;28;20029;-78
2021/10/03 01:13:56;;;;;;;12.30;9.60;;;;;;;13.19;93.05;100073.28;4993972;28;20054;-78
2021/10/03 01:16:21;;;;;;;12.73;9.07;;;;;;;13.20;93.07;100068.63;4995075;28;20124;-78
2021/10/03 01:18:46;;;;;;;16.00;10.73;;;;;;;13.19;93.02;100051.41;4993649;28;20030;-78
2021/10/03 01:21:12;;;;;;;16.55;10.07;;;;;;;13.17;93.20;100037.19;5012639;28;20357;-78
2021/10/03 01:23:38;;;;;;;15.90;10.48;;;;;;;13.16;93.01;100043.81;4991872;28;20112;-78
2021/10/03 01:26:03;;;;;;;16.77;10.52;;;;;;;13.16;93.11;100032.06;5010354;28;20030;-77
2021/10/03 01:28:29;;;;;;;13.43;10.65;;;;;;;13.16;93.00;100016.44;5011082;28;20465;-78
2021/10/03 01:30:54;;;;;;;17.50;11.60;;;;;;;13.14;93.02;100021.41;5012372;28;20038;-77
2021/10/03 01:33:21;;;;;;;11.75;9.40;;;;;;;13.13;92.87;100008.84;4993494;28;20029;-78
2021/10/03 01:35:47;;;;;;;11.82;10.00;;;;;;;13.13;92.95;99997.09;4994152;28;20040;-78
2021/10/03 01:38:14;;;;;;;12.15;9.40;;;;;;;13.11;93.09;99986.47;4992557;28;20060;-78
2021/10/03 01:40:41;;;;;;;12.68;10.13;;;;;;;13.10;92.88;99993.06;4962754;28;20522;-78
2021/10/03 01:43:08;;;;;;;13.50;10.88;;;;;;;13.09;92.72;99975.00;5011110;28;20076;-78
2021/10/03 01:45:34;;;;;;;12.18;9.30;;;;;;;13.07;92.91;99971.78;5012270;28;20033;-78
2021/10/03 01:48:07;;;;;;;11.35;10.02;;;;;;;13.07;92.76;99964.38;5011416;28;20030;-78
2021/10/03 01:50:51;;;;;;;19.30;10.50;;;;;;;13.09;92.68;99964.06;4980017;28;20502;-78
2021/10/03 01:53:21;;;;;;;13.15;10.30;;;;;;;13.13;92.66;99932.22;4994111;28;20045;-78
2021/10/03 01:55:47;;;;;;;13.90;10.68;;;;;;;13.14;92.38;99943.97;5011446;28;20025;-78
2021/10/03 01:58:14;;;;;;;11.98;9.45;;;;;;;13.15;92.71;99940.09;5009590;28;20155;-78
2021/10/03 02:00:39;;;;;;;12.48;9.63;;;;;;;13.16;92.69;99923.38;4998137;28;20053;-78
2021/10/03 02:03:07;;;;;;;12.27;9.70;;;;;;;13.19;92.65;99919.22;5013783;28;20468;-78
2021/10/03 02:05:37;;;;;;;12.25;9.52;;;;;;;13.19;92.30;99909.09;5013297;28;20111;-78
2021/10/03 02:08:04;;;;;;;12.75;9.43;;;;;;;13.23;92.36;99903.78;4991842;28;20049;-76
2021/10/03 02:10:30;;;;;;;11.20;9.55;;;;;;;13.25;92.46;99905.09;5015923;28;20388;-78
2021/10/03 02:12:55;;;;;;;11.05;9.45;;;;;;;13.26;91.95;99893.06;5014543;28;20058;-79
2021/10/03 02:15:21;;;;;;;8.65;7.78;;;;;;;13.28;92.10;99901.75;5015027;28;20026;-78
2021/10/03 02:17:46;;;;;;;9.93;8.48;;;;;;;13.32;91.98;99891.00;5012828;28;20030;-78
2021/10/03 02:20:14;;;;;;;9.63;8.50;;;;;;;13.36;91.94;99874.75;5014321;28;20057;-79
2021/10/03 02:22:39;;;;;;;13.75;9.23;;;;;;;13.38;91.92;99894.41;4981136;28;20048;-79
2021/10/03 02:25:05;;;;;;;10.90;8.63;;;;;;;13.39;91.85;99874.09;4997060;28;20488;-79
2021/10/03 02:27:30;;;;;;;10.32;9.00;;;;;;;13.38;91.70;99876.03;5012124;28;20045;-79
2021/10/03 02:29:56;;;;;;;9.77;8.77;;;;;;;13.42;91.38;99862.53;5015484;28;20088;-79
2021/10/03 02:32:21;;;;;;;11.85;8.13;;;;;;;13.44;91.83;99849.34;4996704;28;20034;-77
2021/10/03 02:34:47;;;;;;;9.25;8.23;;;;;;;13.45;91.43;99853.69;4995435;28;20061;-77
2021/10/03 02:37:14;;;;;;;11.90;8.55;;;;;;;13.46;91.26;99849.84;5014613;28;20018;-77
2021/10/03 02:39:39;;;;;;;9.27;8.30;;;;;;;13.48;91.10;99840.19;4998310;28;20049;-77
2021/10/03 02:42:04;;;;;;;10.13;8.65;;;;;;;13.48;91.11;99842.13;4978855;28;20536;-78
2021/10/03 02:44:30;;;;;;;11.85;8.02;;;;;;;13.46;90.83;99853.38;5013379;28;20052;-77
2021/10/03 02:46:55;;;;;;;12.25;8.95;;;;;;;13.47;91.11;99845.97;5015133;28;20523;-78
2021/10/03 02:49:21;;;;;;;10.40;7.57;;;;;;;13.46;91.14;99822.47;5011938;28;20501;-78
2021/10/03 02:51:46;;;;;;;10.18;7.95;;;;;;;13.47;91.07;99829.53;5015082;28;20036;-77
2021/10/03 02:54:11;;;;;;;12.77;8.85;;;;;;;13.46;90.75;99830.66;4982297;28;20057;-78
2021/10/03 02:56:37;;;;;;;9.15;8.18;;;;;;;13.45;90.83;99829.03;5009423;28;20037;-77
2021/10/03 02:59:02;;;;;;;11.32;8.77;;;;;;;13.45;90.97;99812.59;5010060;28;20022;-78
2021/10/03 03:01:28;;;;;;;11.50;8.63;;;;;;;13.45;90.96;99826.28;5013839;28;20022;-78
2021/10/03 03:03:53;;;;;;;11.73;8.30;;;;;;;13.47;91.15;99815.84;4992866;28;20029;-78
2021/10/03 03:06:19;;;;;;;10.48;8.65;;;;;;;13.49;90.95;99824.56;4997707;28;20026;-78
2021/10/03 03:08:46;;;;;;;10.27;8.30;;;;;;;13.51;90.81;99811.38;4996911;28;20041;-78
2021/10/03 03:11:11;;;;;;;11.63;9.00;;;;;;;13.53;90.80;99803.63;5013744;28;20493;-79
2021/10/03 03:13:38;;;;;;;9.27;8.27;;;;;;;13.53;90.82;99803.63;5010900;28;20060;-79
2021/10/03 03:16:05;;;;;;;9.88;7.85;;;;;;;13.55;90.83;99815.06;4997160;28;20030;-78
2021/10/03 03:18:30;;;;;;;9.57;7.43;;;;;;;13.54;90.90;99806.03;4979942;28;20029;-78
2021/10/03 03:20:56;;;;;;;11.18;8.85;;;;;;;13.52;90.79;99810.22;5015427;28;20350;-78
2021/10/03 03:23:21;;;;;;;12.93;8.55;;;;;;;13.49;90.83;99792.50;4989218;28;20036;-77
2021/10/03 03:25:46;;;;;;;12.88;8.40;;;;;;;13.48;91.03;99790.09;4997519;28;20026;-78
2021/10/03 03:28:12;;;;;;;11.88;8.10;;;;;;;13.44;91.04;99778.94;4995822;28;20029;-78
2021/10/03 03:30:37;;;;;;;14.18;8.88;;;;;;;13.41;91.06;99778.78;5014340;28;20022;-78
2021/10/03 03:33:03;;;;;;;18.70;9.07;;;;;;;13.40;91.30;99761.56;5011385;28;20037;-78
2021/10/03 03:35:29;;;;;;;13.52;9.70;;;;;;;13.39;91.19;99754.44;5013450;28;20030;-78
2021/10/03 03:37:54;;;;;;;15.63;9.02;;;;;;;13.38;91.42;99743.84;5013115;28;20030;-77
2021/10/03 03:40:20;;;;;;;10.13;8.15;;;;;;;13.38;91.52;99741.91;5014326;28;20154;-78
2021/10/03 03:42:46;;;;;;;13.35;8.73;;;;;;;13.37;91.56;99734.81;5012979;28;20034;-78
2021/10/03 03:45:11;;;;;;;11.23;8.25;;;;;;;13.39;91.60;99737.22;4997083;28;20029;-77
2021/10/03 03:47:37;;;;;;;12.50;9.15;;;;;;;13.37;91.83;99729.34;5011055;28;20026;-78
2021/10/03 03:50:03;;;;;;;10.68;8.88;;;;;;;13.37;91.78;99731.25;4996884;28;20051;-78
2021/10/03 03:52:28;;;;;;;15.18;10.38;;;;;;;13.38;91.97;99725.47;4995292;28;20049;-78
2021/10/03 03:54:55;;;;;;;13.32;10.15;;;;;;;13.37;92.02;99720.31;5011777;28;20473;-78
2021/10/03 03:57:21;;;;;;;12.63;9.02;;;;;;;13.36;92.32;99710.50;5013609;28;20022;-78
2021/10/03 03:59:46;;;;;;;17.02;10.35;;;;;;;13.35;92.27;99712.44;4995050;28;20357;-77
2021/10/03 04:02:12;;;;;;;13.55;10.27;;;;;;;13.35;92.31;99728.06;4995246;28;20033;-78
2021/10/03 04:04:37;;;;;;;18.75;10.57;;;;;;;13.35;92.39;99719.84;5007529;28;20030;-77
2021/10/03 04:07:04;;;;;;;13.85;9.25;;;;;;;13.35;92.56;99720.63;4994174;28;20447;-77
2021/10/03 04:09:29;;;;;;;16.00;10.75;;;;;;;13.36;92.55;99715.97;4995396;28;20101;-77
2021/10/03 04:11:54;;;;;;;13.98;10.10;;;;;;;13.36;92.77;99722.25;5012815;28;20464;-78
2021/10/03 04:14:20;;;;;;;13.35;8.82;;;;;;;13.37;92.72;99723.03;4992536;28;20027;-77
2021/10/03 04:16:45;;;;;;;13.77;8.75;;;;;;;13.38;92.76;99716.47;5011317;28;20048;-77
2021/10/03 04:19:11;;;;;;;13.13;8.75;;;;;;;13.38;92.59;99709.06;5010936;28;20030;-77
2021/10/03 04:21:36;;;;;;;14.43;8.63;;;;;;;13.42;92.99;99714.69;5013000;28;20034;-77
2021/10/03 04:24:02;;;;;;;11.02;8.20;;;;;;;13.44;92.93;99707.78;4992867;28;20037;-78
2021/10/03 04:26:29;;;;;;;11.10;8.32;;;;;;;13.49;93.08;99704.09;5011315;28;20026;-77
2021/10/03 04:28:55;;;;;;;8.73;7.43;;;;;;;13.55;93.37;99692.66;5010156;28;20067;-77
2021/10/03 04:31:20;;;;;;;11.50;8.32;;;;;;;13.58;93.10;99688.47;5010923;28;20117;-78
2021/10/03 04:33:46;;;;;;;14.32;9.38;;;;;;;13.61;93.30;99696.03;5011113;28;20443;-77
2021/10/03 04:36:11;;;;;;;11.75;8.40;;;;;;;13.63;93.16;99692.97;4993430;28;20037;-77
2021/10/03 04:38:39;;;;;;;12.20;8.98;;;;;;;13.64;93.30;99706.38;5012276;28;20096;-78
2021/10/03 04:41:05;;;;;;;12.90;9.15;;;;;;;13.65;93.58;99696.22;4994963;28;20032;-77
2021/10/03 04:43:31;;;;;;;16.67;8.60;;;;;;;13.64;93.38;99684.47;5011079;28;20022;-77
2021/10/03 04:45:56;;;;;;;11.77;9.45;;;;;;;13.64;93.59;99684.47;5003943;28;20049;-77
2021/10/03 04:48:21;;;;;;;16.25;9.73;;;;;;;13.67;93.69;99672.84;4980327;28;20109;-77
2021/10/03 04:50:47;;;;;;;15.88;9.80;;;;;;;13.66;93.56;99670.44;4988198;28;20027;-77
2021/10/03 04:53:13;;;;;;;13.30;8.95;;;;;;;13.66;93.88;99654.00;4994382;28;20552;-77
2021/10/03 04:55:38;;;;;;;13.50;8.65;;;;;;;13.65;93.79;99646.91;5010508;28;20042;-77
2021/10/03 04:58:03;;;;;;;12.80;9.57;;;;;;;13.64;93.85;99659.81;4992520;28;20030;-77
2021/10/03 05:00:30;;;;;;;16.25;9.82;;;;;;;13.63;94.10;99655.44;4993369;28;20077;-78
2021/10/03 05:02:56;;;;;;;17.85;9.57;;;;;;;13.64;94.10;99607.78;5008790;28;20052;-77
2021/10/03 05:05:22;;;;;;;15.30;10.13;;;;;;;13.63;94.41;99617.09;5008236;28;20400;-77
2021/10/03 05:07:47;;;;;;;15.88;10.50;;;;;;;13.65;94.53;99628.53;4974756;28;20038;-77
2021/10/03 05:10:12;;;;;;;20.42;11.48;;;;;;;13.66;94.58;99635.63;4993290;28;20029;-77
2021/10/03 05:12:39;;;;;;;13.10;8.93;;;;;;;13.67;94.70;99640.00;4986425;28;20116;-77
2021/10/03 05:15:05;;;;;;;17.77;11.25;;;;;;;13.68;94.98;99632.56;5007935;28;20030;-77
2021/10/03 05:17:30;;;;;;;21.42;11.40;;;;;;;13.67;95.17;99629.03;5011705;28;20033;-77
2021/10/03 05:19:56;;;;;;;24.30;12.43;;;;;;;13.65;95.25;99623.06;5011278;28;20026;-78
2021/10/03 05:22:22;;;;;;;17.35;11.57;;;;;;;13.66;95.17;99608.25;4991387;28;20389;-77
2021/10/03 05:24:48;;;;;;;18.58;11.13;;;;;;;13.68;95.44;99595.03;5002137;28;20033;-78
2021/10/03 05:27:13;;;;;;;15.55;11.13;;;;;;;13.69;95.73;99615.00;4994402;28;20064;-77
2021/10/03 05:29:38;;;;;;;21.08;11.73;;;;;;;13.71;95.85;99618.22;5002925;28;20033;-78
2021/10/03 05:32:05;;;;;;;18.88;11.68;;;;;;;13.71;96.12;99624.50;5004024;28;20030;-78
2021/10/03 05:34:30;;;;;;;16.48;9.25;;;;;;;13.72;96.39;99619.84;5006713;28;20110;-77
2021/10/03 05:36:56;;;;;;;16.70;11.02;;;;;;;13.72;96.63;99609.72;4992415;28;20034;-78
2021/10/03 05:39:21;;;;;;;19.92;11.85;;;;;;;13.71;96.67;99613.56;5008547;28;20026;-77
2021/10/03 05:41:47;;;;;;;21.98;12.07;;;;;;;13.70;97.04;99617.44;4992594;28;20392;-78
2021/10/03 05:44:12;;;;;;;22.63;12.48;;;;;;;13.70;97.14;99617.44;5010522;28;20029;-78
2021/10/03 05:46:37;;;;;;;25.33;11.88;;;;;;;13.71;97.52;99613.56;4994484;28;20405;-77
2021/10/03 05:49:03;;;;;;;25.77;12.80;;;;;;;13.71;97.65;99579.88;4992243;28;20061;-77
2021/10/03 05:51:28;;;;;;;17.20;11.13;;;;;;;13.69;97.88;99577.47;4993961;28;20014;-77
2021/10/03 05:53:54;;;;;;;19.92;12.07;;;;;;;13.70;97.94;99561.84;4992814;28;20030;-77
2021/10/03 05:56:19;;;;;;;17.77;9.82;;;;;;;13.71;98.16;99579.88;4994292;28;20099;-77
2021/10/03 05:58:45;;;;;;;19.30;10.18;;;;;;;13.74;98.16;99591.00;5010004;28;20034;-77
2021/10/03 06:01:10;;;;;;;14.50;9.02;;;;;;;13.77;98.44;99590.34;4993412;28;20025;-78
2021/10/03 06:03:36;;;;;;;16.70;11.38;;;;;;;13.80;98.83;99586.16;5010802;28;20034;-78
2021/10/03 06:06:01;;;;;;;19.10;10.95;;;;;;;13.83;98.69;99546.34;5010162;28;20026;-78
2021/10/03 06:08:27;;;;;;;14.45;9.75;;;;;;;13.86;99.09;99587.63;4989284;28;20030;-77
2021/10/03 06:10:53;;;;;;;16.92;11.52;;;;;;;13.89;99.48;99569.72;5009992;28;20025;-78
2021/10/03 06:13:19;;;;;;;17.08;9.90;;;;;;;13.92;99.42;99569.06;5011584;28;20097;-78
2021/10/03 06:15:45;;;;;;;19.55;12.30;;;;;;;13.94;99.48;99577.75;5010979;28;20432;-78
2021/10/03 06:18:11;;;;;;;20.45;12.60;;;;;;;13.94;99.72;99586.78;4992528;28;20096;-78
2021/10/03 06:20:37;;;;;;;23.05;10.80;;;;;;;13.96;99.93;99568.06;5007941;28;20030;-78
2021/10/03 06:23:02;;;;;;;22.40;12.98;;;;;;;14.01;99.97;99561.63;4992411;28;20496;-78
2021/10/03 06:25:28;;;;;;;23.67;14.07;;;;;;;14.06;99.96;99555.97;5010100;28;20029;-78
2021/10/03 06:27:53;;;;;;;24.25;12.48;;;;;;;14.09;99.83;99547.09;4991277;28;20026;-78
2021/10/03 06:30:18;;;;;;;16.95;10.40;;;;;;;14.14;99.80;99546.13;5004932;28;20053;-77
2021/10/03 06:32:44;;;;;;;15.52;8.88;;;;;;;14.17;99.83;99581.88;4983961;28;20035;-77
2021/10/03 06:35:09;;;;;;;19.55;10.05;;;;;;;14.17;100.00;99559.94;4990675;28;20022;-78
2021/10/03 06:37:35;;;;;;;21.27;10.90;;;;;;;14.20;99.97;99581.22;5008766;28;20468;-79
2021/10/03 06:40:00;;;;;;;16.45;9.40;;;;;;;14.21;100.00;99582.84;5003517;28;20022;-78
2021/10/03 06:42:25;;;;;;;21.65;10.90;;;;;;;14.23;100.00;99568.00;4994301;28;20033;-77
2021/10/03 06:44:51;;;;;;;22.10;8.82;;;;;;;14.25;100.00;99583.00;5004525;28;20037;-78
2021/10/03 06:47:16;;;;;;;18.75;10.10;;;;;;;14.24;100.00;99572.34;5013271;28;20358;-78
2021/10/03 06:49:42;;;;;;;19.50;13.00;;;;;;;14.24;100.00;99543.00;5005066;28;20038;-78
2021/10/03 06:52:10;;;;;;;22.83;11.38;;;;;;;14.27;100.00;99579.91;4979891;28;20224;-78
2021/10/03 06:54:35;;;;;;;18.42;9.30;;;;;;;14.28;100.00;99582.34;5014367;28;20103;-78
2021/10/03 06:57:01;;;;;;;14.63;8.68;;;;;;;14.27;100.00;99602.66;5009508;28;20417;-78
2021/10/03 06:59:26;;;;;;;18.80;9.63;;;;;;;14.29;100.00;99596.84;4991196;28;20026;-78
2021/10/03 07:01:52;;;;;;;19.98;11.25;;;;;;;14.27;100.00;99596.34;5013348;28;20061;-78
2021/10/03 07:04:18;;;;;;;20.27;11.48;;;;;;;14.24;100.00;99597.84;4997468;28;20026;-79
2021/10/03 07:06:43;;;;;;;20.70;9.52;;;;;;;14.21;100.00;99602.03;5013677;28;20025;-78
2021/10/03 07:09:08;;;;;;;18.77;8.45;;;;;;;14.21;100.00;99595.72;5014942;28;20132;-78
2021/10/03 07:11:34;;;;;;;18.42;11.27;;;;;;;14.19;100.00;99582.38;5013980;28;20030;-78
2021/10/03 07:13:59;;;;;;;18.15;8.90;;;;;;;14.20;100.00;99603.16;4996177;28;20053;-79
2021/10/03 07:16:25;;;;;;;23.10;12.13;;;;;;;14.19;100.00;99576.09;4995710;28;20048;-79
2021/10/03 07:18:51;;;;;;;22.60;10.02;;;;;;;14.18;100.00;99591.69;5014076;28;20469;-80
2021/10/03 07:21:17;;;;;;;25.40;12.25;;;;;;;14.19;100.00;99579.63;4989810;28;20033;-79
2021/10/03 07:23:42;;;;;;;28.25;13.48;;;;;;;14.18;100.00;99599.91;5013670;28;20034;-79
2021/10/03 07:26:07;;;;;;;22.85;11.85;;;;;;;14.17;100.00;99603.81;4995197;28;20028;-79
2021/10/03 07:28:33;;;;;;;23.40;11.90;;;;;;;14.18;100.00;99594.44;4979272;28;20438;-78
2021/10/03 07:31:00;;;;;;;22.95;12.27;;;;;;;14.19;100.00;99596.06;5012437;28;20123;-78
2021/10/03 07:33:26;;;;;;;20.83;10.00;;;;;;;14.21;100.00;99582.84;5009886;28;20117;-78
2021/10/03 07:35:51;;;;;;;24.75;10.70;;;;;;;14.23;100.00;99600.91;5012750;28;20382;-78
2021/10/03 07:38:16;;;;;;;27.88;14.05;;;;;;;14.27;100.00;99593.59;5011583;28;20040;-78
2021/10/03 07:40:43;;;;;;;27.58;14.95;;;;;;;14.29;100.00;99621.50;5010597;28;20030;-79
2021/10/03 07:43:08;;;;;;;28.67;14.32;;;;;;;14.34;100.00;99558.28;5013639;28;20026;-78
2021/10/03 07:45:34;;;;;;;28.58;11.57;;;;;;;14.38;100.00;99565.53;5013069;28;20502;-79
2021/10/03 07:47:59;;;;;;;20.50;11.18;;;;;;;14.42;100.00;99607.59;5012019;28;20025;-78
2021/10/03 07:50:25;;;;;;;29.55;12.00;;;;;;;14.48;100.00;99590.97;5012425;28;20041;-78
2021/10/03 07:52:50;;;;;;;26.35;12.85;;;;;;;14.52;100.00;99565.34;5013241;28;20036;-78
2021/10/03 07:55:16;;;;;;;27.85;12.70;;;;;;;14.56;100.00;99593.69;5009906;28;20041;-78
2021/10/03 07:57:41;;;;;;;19.08;10.63;;;;;;;14.60;100.00;99627.56;4990464;28;20034;-78
2021/10/03 08:00:07;;;;;;;19.52;10.68;;;;;;;14.62;100.00;99603.38;5002947;28;20437;-78
2021/10/03 08:02:32;;;;;;;28.10;12.57;;;;;;;14.64;100.00;99598.34;4978586;28;20034;-78
2021/10/03 08:04:58;;;;;;;26.25;12.30;;;;;;;14.67;100.00;99613.31;4996313;28;20491;-79
2021/10/03 08:07:23;;;;;;;16.33;10.77;;;;;;;14.67;100.00;99620.75;4994682;28;20026;-79
2021/10/03 08:09:48;;;;;;;20.85;10.82;;;;;;;14.70;100.00;99626.38;4994501;28;20041;-79
2021/10/03 08:12:14;;;;;;;25.65;11.45;;;;;;;14.70;100.00;99603.63;5007763;28;20393;-78
2021/10/03 08:14:39;;;;;;;25.10;14.00;;;;;;;14.69;100.00;99588.31;5012692;28;20033;-79
2021/10/03 08:17:05;;;;;;;25.70;11.95;;;;;;;14.65;100.00;99608.19;5010657;28;20068;-79
2021/10/03 08:19:31;;;;;;;22.70;11.95;;;;;;;14.66;100.00;99614.47;5011231;28;20076;-79
2021/10/03 08:21:57;;;;;;;20.50;9.75;;;;;;;14.68;100.00;99614.13;5011398;28;20040;-79
2021/10/03 08:24:22;;;;;;;19.67;10.55;;;;;;;14.71;100.00;99638.19;4992412;28;20033;-79
2021/10/03 08:26:48;;;;;;;30.55;13.73;;;;;;;14.74;100.00;99615.56;5011805;28;20026;-80
2021/10/03 08:29:13;;;;;;;24.70;12.70;;;;;;;14.79;100.00;99613.44;4993722;28;20385;-80
2021/10/03 08:31:40;;;;;;;27.77;11.27;;;;;;;14.85;99.81;99628.56;4990425;28;20022;-80
2021/10/03 08:34:05;;;;;;;31.73;12.25;;;;;;;14.91;99.51;99626.44;5012366;28;20026;-80
2021/10/03 08:36:31;;;;;;;16.38;9.30;;;;;;;14.97;99.21;99622.38;5009074;28;20393;-79
2021/10/03 08:38:56;;;;;;;21.92;10.93;;;;;;;14.99;98.76;99627.53;5004586;28;20029;-80
2021/10/03 08:41:22;;;;;;;20.55;11.10;;;;;;;14.97;98.50;99603.16;5008164;28;20021;-80
2021/10/03 08:43:52;;;;;;;28.45;11.52;;;;;;;15.01;98.43;99622.53;4994291;28;20084;-79
2021/10/03 08:46:17;;;;;;;33.65;13.18;;;;;;;15.03;98.07;99639.44;5002983;28;20026;-79
2021/10/03 08:48:43;;;;;;;22.60;11.88;;;;;;;15.04;97.87;99619.13;4991236;28;20038;-79
2021/10/03 08:51:09;;;;;;;18.27;9.73;;;;;;;15.07;97.54;99615.72;4976998;28;20018;-79
2021/10/03 08:53:35;;;;;;;23.00;10.88;;;;;;;15.08;97.17;99625.53;4992832;28;20037;-80
2021/10/03 08:56:00;;;;;;;16.42;9.90;;;;;;;15.10;96.83;99635.06;5008937;28;20032;-79
2021/10/03 08:58:26;;;;;;;16.17;9.20;;;;;;;15.14;96.57;99628.88;5012722;28;20022;-79
2021/10/03 09:00:51;;;;;;;23.23;11.75;;;;;;;15.16;96.16;99637.59;5008739;28;20084;-80
2021/10/03 09:03:17;;;;;;;21.40;10.45;;;;;;;15.15;95.69;99638.75;4990392;28;20105;-79
2021/10/03 09:05:55;;;;;;;25.88;11.95;;;;;;;15.13;95.57;99630.84;5007334;28;20541;-79
2021/10/03 09:08:21;;;;;;;24.02;11.55;;;;;;;15.12;95.25;99637.47;5009713;28;20440;-79
2021/10/03 09:11:11;;;;;;;22.48;12.25;;;;;;;15.13;95.33;99633.59;4991758;28;20026;-79
2021/10/03 09:13:48;;;;;;;20.60;11.60;;;;;;;15.13;94.99;99611.63;5006176;28;20129;-79
2021/10/03 09:16:32;;;;;;;23.98;12.15;;;;;;;15.17;94.91;99661.16;5010775;28;20033;-79
2021/10/03 09:19:02;;;;;;;27.77;11.73;;;;;;;15.18;94.77;99614.19;4978853;28;20036;-79
2021/10/03 09:21:31;;;;;;;16.20;8.93;;;;;;;15.23;94.71;99618.69;5011244;28;20025;-79
2021/10/03 09:24:11;;;;;;;28.08;13.82;;;;;;;15.22;94.56;99641.75;4998262;28;20489;-79
2021/10/03 09:26:37;;;;;;;19.88;10.65;;;;;;;15.19;94.55;99615.78;4993873;28;20033;-79
2021/10/03 09:29:36;;;;;;;19.88;10.15;;;;;;;15.23;94.12;99632.41;5011419;28;20536;-79
2021/10/03 09:32:08;;;;;;;17.15;9.32;;;;;;;15.16;94.04;99626.63;4979229;28;20057;-79
2021/10/03 09:34:33;;;;;;;30.98;15.93;;;;;;;15.12;94.15;99636.69;5010273;28;20104;-79
2021/10/03 09:37:22;;;;;;;23.58;12.50;;;;;;;15.08;94.16;99651.03;5009997;28;20045;-79
2021/10/03 09:39:50;;;;;;;21.15;9.50;;;;;;;15.09;94.06;99658.16;4987038;28;20388;-80
2021/10/03 09:42:16;;;;;;;21.95;11.48;;;;;;;15.08;93.98;99631.81;4978198;28;20053;-80
2021/10/03 09:45:08;;;;;;;22.85;12.25;;;;;;;15.08;94.20;99639.25;5010384;28;20061;-80
2021/10/03 09:47:33;;;;;;;25.65;12.93;;;;;;;15.08;93.98;99626.34;5010545;28;20056;-79
2021/10/03 09:49:58;;;;;;;21.15;11.25;;;;;;;15.09;94.01;99633.44;4986984;28;20577;-80
2021/10/03 09:52:24;;;;;;;36.42;14.90;;;;;;;15.10;93.78;99634.25;5009976;28;20056;-79
2021/10/03 09:54:49;;;;;;;26.77;12.40;;;;;;;15.12;93.52;99617.47;5005378;28;20021;-81
2021/10/03 09:57:17;;;;;;;22.30;10.45;;;;;;;15.14;93.00;99623.41;4990103;28;20537;-79
2021/10/03 09:59:42;;;;;;;19.45;12.57;;;;;;;15.13;93.04;99628.09;4977949;28;20030;-79
2021/10/03 10:02:08;;;;;;;22.00;10.90;;;;;;;15.16;93.27;99610.16;4993808;28;20053;-80
2021/10/03 10:04:34;;;;;;;27.90;12.93;;;;;;;15.19;92.70;99620.47;4992304;28;20025;-79
2021/10/03 10:07:00;;;;;;;16.05;9.57;;;;;;;15.20;92.41;99627.59;4977265;28;20489;-79
2021/10/03 10:09:25;;;;;;;27.35;9.27;;;;;;;15.19;92.61;99624.00;4987144;28;20038;-79
2021/10/03 10:12:13;;;;;;;28.08;13.07;;;;;;;15.18;92.48;99618.88;4977188;28;20022;-79
2021/10/03 10:14:40;;;;;;;19.63;11.05;;;;;;;15.17;92.40;99629.06;5012106;28;20046;-79
2021/10/03 10:17:25;;;;;;;21.73;12.07;;;;;;;15.17;92.53;99647.44;4973900;28;20513;-79
2021/10/03 10:19:50;;;;;;;24.35;9.77;;;;;;;15.20;92.58;99613.84;5010788;28;20074;-80
2021/10/03 10:22:19;;;;;;;21.38;10.95;;;;;;;15.24;92.18;99650.47;4988603;28;20030;-79
2021/10/03 10:24:47;;;;;;;17.35;10.18;;;;;;;15.27;91.99;99616.84;5004414;28;20182;-79
2021/10/03 10:27:18;;;;;;;24.92;10.48;;;;;;;15.31;91.64;99623.31;5010367;28;20404;-79
2021/10/03 10:30:12;;;;;;;21.88;11.52;;;;;;;15.28;91.65;99640.44;5011513;28;20523;-79
2021/10/03 10:32:59;;;;;;;22.25;10.80;;;;;;;15.23;91.92;99589.28;5007791;28;20038;-79
2021/10/03 10:35:31;;;;;;;22.13;9.80;;;;;;;15.20;92.24;99627.59;5011909;28;20475;-80
2021/10/03 10:37:56;;;;;;;20.13;11.23;;;;;;;15.14;92.62;99654.44;5010602;28;20056;-80
2021/10/03 10:40:22;;;;;;;27.02;13.18;;;;;;;15.15;92.92;99636.00;5005929;28;20061;-80
2021/10/03 10:43:03;;;;;;;21.70;12.35;;;;;;;15.13;93.09;99624.53;5013727;28;20053;-79
2021/10/03 10:45:33;;;;;;;15.80;8.88;;;;;;;15.05;93.17;99646.22;4990192;28;20022;-79
2021/10/03 10:48:11;;;;;;;26.98;12.48;;;;;;;15.00;93.65;99648.34;5014562;28;20041;-80
2021/10/03 10:50:48;;;;;;;23.02;10.40;;;;;;;14.98;94.07;99639.66;5015010;28;20131;-80
2021/10/03 10:53:32;;;;;;;25.98;12.60;;;;;;;14.93;94.51;99618.69;4995578;28;20404;-80
2021/10/03 10:56:15;;;;;;;22.75;12.52;;;;;;;14.92;94.76;99619.81;5012499;28;20033;-80
2021/10/03 10:58:53;;;;;;;25.55;10.90;;;;;;;14.97;95.00;99596.88;4976314;28;20030;-80
2021/10/03 11:01:31;;;;;;;29.80;13.18;;;;;;;15.00;94.70;99649.16;5009001;28;20066;-80
2021/10/03 11:04:01;;;;;;;22.10;10.05;;;;;;;15.02;94.64;99633.16;4996968;28;20508;-80
2021/10/03 11:06:26;;;;;;;20.40;9.15;;;;;;;15.05;94.55;99637.97;5008886;28;20037;-80
2021/10/03 11:08:58;;;;;;;18.58;9.43;;;;;;;15.07;94.30;99627.47;5013888;28;20034;-80
2021/10/03 11:11:23;;;;;;;25.05;13.18;;;;;;;15.08;94.08;99609.06;5011127;28;20034;-80
2021/10/03 11:13:52;;;;;;;22.73;12.38;;;;;;;15.09;93.93;99643.63;5011962;28;20081;-80
2021/10/03 11:16:32;;;;;;;23.20;11.45;;;;;;;15.12;94.05;99655.88;4997579;28;20018;-78
2021/10/03 11:19:02;;;;;;;23.02;11.98;;;;;;;15.21;93.46;99608.00;5000286;28;20022;-79